sensor_id;sensor_type;location;lat;lon;timestamp;temperature;humidity
57058;DHT22;55017;52.848;6.748;2023-06-10T00:01:29;16.90;85.50
57058;DHT22;55017;52.848;6.748;2023-06-10T00:03:55;16.90;85.20
57058;DHT22;55017;52.848;6.748;2023-06-10T00:06:21;16.90;85.40
57058;DHT22;55017;52.848;6.748;2023-06-10T00:08:50;16.90;85.60
57058;DHT22;55017;52.848;6.748;2023-06-10T00:11:15;16.80;86.00
57058;DHT22;55017;52.848;6.748;2023-06-10T00:13:41;16.90;85.80
57058;DHT22;55017;52.848;6.748;2023-06-10T00:16:06;16.80;85.70
57058;DHT22;55017;52.848;6.748;2023-06-10T00:18:32;16.80;85.50
57058;DHT22;55017;52.848;6.748;2023-06-10T00:20:58;16.80;86.20
57058;DHT22;55017;52.848;6.748;2023-06-10T00:23:30;16.80;86.10
57058;DHT22;55017;52.848;6.748;2023-06-10T00:25:58;16.80;85.90
57058;DHT22;55017;52.848;6.748;2023-06-10T00:28:24;16.90;85.90
57058;DHT22;55017;52.848;6.748;2023-06-10T00:30:50;16.80;86.40
57058;DHT22;55017;52.848;6.748;2023-06-10T00:33:16;16.90;86.90
57058;DHT22;55017;52.848;6.748;2023-06-10T00:35:42;16.90;87.10
57058;DHT22;55017;52.848;6.748;2023-06-10T00:38:07;16.80;86.90
57058;DHT22;55017;52.848;6.748;2023-06-10T00:40:39;16.80;87.00
57058;DHT22;55017;52.848;6.748;2023-06-10T00:43:04;16.80;87.40
57058;DHT22;55017;52.848;6.748;2023-06-10T00:45:31;16.80;87.40
57058;DHT22;55017;52.848;6.748;2023-06-10T00:47:57;16.80;88.10
57058;DHT22;55017;52.848;6.748;2023-06-10T00:50:23;16.80;88.00
57058;DHT22;55017;52.848;6.748;2023-06-10T00:52:48;16.80;87.80
57058;DHT22;55017;52.848;6.748;2023-06-10T00:55:16;16.80;88.50
57058;DHT22;55017;52.848;6.748;2023-06-10T00:57:44;16.80;88.30
57058;DHT22;55017;52.848;6.748;2023-06-10T01:00:10;16.70;88.20
57058;DHT22;55017;52.848;6.748;2023-06-10T01:02:36;16.80;88.00
57058;DHT22;55017;52.848;6.748;2023-06-10T01:05:02;16.70;88.80
57058;DHT22;55017;52.848;6.748;2023-06-10T01:15:04;16.70;89.60
57058;DHT22;55017;52.848;6.748;2023-06-10T01:17:29;16.80;90.00
57058;DHT22;55017;52.848;6.748;2023-06-10T01:19:59;16.80;89.60
57058;DHT22;55017;52.848;6.748;2023-06-10T01:22:25;16.70;90.10
57058;DHT22;55017;52.848;6.748;2023-06-10T01:24:56;16.60;90.10
57058;DHT22;55017;52.848;6.748;2023-06-10T01:27:28;16.70;90.60
57058;DHT22;55017;52.848;6.748;2023-06-10T01:29:59;16.80;90.70
57058;DHT22;55017;52.848;6.748;2023-06-10T01:32:34;16.50;90.40
57058;DHT22;55017;52.848;6.748;2023-06-10T01:35:03;16.60;90.90
57058;DHT22;55017;52.848;6.748;2023-06-10T01:37:31;16.60;91.00
57058;DHT22;55017;52.848;6.748;2023-06-10T01:40:00;16.50;91.00
57058;DHT22;55017;52.848;6.748;2023-06-10T01:42:27;16.50;91.10
57058;DHT22;55017;52.848;6.748;2023-06-10T01:44:53;16.40;91.10
57058;DHT22;55017;52.848;6.748;2023-06-10T01:47:19;16.40;91.30
57058;DHT22;55017;52.848;6.748;2023-06-10T01:49:44;16.40;91.40
57058;DHT22;55017;52.848;6.748;2023-06-10T01:52:10;16.30;91.70
57058;DHT22;55017;52.848;6.748;2023-06-10T01:54:35;16.30;91.60
57058;DHT22;55017;52.848;6.748;2023-06-10T01:57:01;16.20;91.70
57058;DHT22;55017;52.848;6.748;2023-06-10T01:59:27;16.30;91.60
57058;DHT22;55017;52.848;6.748;2023-06-10T02:01:52;16.40;91.80
57058;DHT22;55017;52.848;6.748;2023-06-10T02:04:18;16.10;91.70
57058;DHT22;55017;52.848;6.748;2023-06-10T02:06:44;16.20;91.70
57058;DHT22;55017;52.848;6.748;2023-06-10T02:09:10;16.10;92.10
57058;DHT22;55017;52.848;6.748;2023-06-10T02:11:36;16.10;92.30
57058;DHT22;55017;52.848;6.748;2023-06-10T02:14:02;16.00;92.20
57058;DHT22;55017;52.848;6.748;2023-06-10T02:16:27;16.00;92.60
57058;DHT22;55017;52.848;6.748;2023-06-10T02:18:53;16.00;92.80
57058;DHT22;55017;52.848;6.748;2023-06-10T02:21:20;15.90;92.40
57058;DHT22;55017;52.848;6.748;2023-06-10T02:23:45;15.80;92.80
57058;DHT22;55017;52.848;6.748;2023-06-10T02:26:11;15.80;93.10
57058;DHT22;55017;52.848;6.748;2023-06-10T02:28:36;16.00;93.20
57058;DHT22;55017;52.848;6.748;2023-06-10T02:31:02;15.80;93.20
57058;DHT22;55017;52.848;6.748;2023-06-10T02:33:27;15.80;93.70
57058;DHT22;55017;52.848;6.748;2023-06-10T02:35:53;15.70;93.50
57058;DHT22;55017;52.848;6.748;2023-06-10T02:38:18;15.60;93.90
57058;DHT22;55017;52.848;6.748;2023-06-10T02:40:44;15.60;94.00
57058;DHT22;55017;52.848;6.748;2023-06-10T02:43:10;15.80;94.10
57058;DHT22;55017;52.848;6.748;2023-06-10T02:45:35;15.60;94.20
57058;DHT22;55017;52.848;6.748;2023-06-10T02:48:01;15.60;94.40
57058;DHT22;55017;52.848;6.748;2023-06-10T02:50:27;15.60;94.70
57058;DHT22;55017;52.848;6.748;2023-06-10T02:52:52;15.40;94.80
57058;DHT22;55017;52.848;6.748;2023-06-10T02:55:18;15.40;94.80
57058;DHT22;55017;52.848;6.748;2023-06-10T02:57:43;15.50;95.10
57058;DHT22;55017;52.848;6.748;2023-06-10T03:00:09;15.40;95.60
57058;DHT22;55017;52.848;6.748;2023-06-10T03:02:39;15.30;95.80
57058;DHT22;55017;52.848;6.748;2023-06-10T03:05:06;15.20;95.90
57058;DHT22;55017;52.848;6.748;2023-06-10T03:07:35;15.10;96.30
57058;DHT22;55017;52.848;6.748;2023-06-10T03:10:01;15.00;97.20
57058;DHT22;55017;52.848;6.748;2023-06-10T03:12:27;15.00;97.30
57058;DHT22;55017;52.848;6.748;2023-06-10T03:14:52;14.90;97.80
57058;DHT22;55017;52.848;6.748;2023-06-10T03:17:18;14.80;98.20
57058;DHT22;55017;52.848;6.748;2023-06-10T03:19:43;14.70;98.70
57058;DHT22;55017;52.848;6.748;2023-06-10T03:22:16;14.70;99.30
57058;DHT22;55017;52.848;6.748;2023-06-10T03:24:42;14.70;99.40
57058;DHT22;55017;52.848;6.748;2023-06-10T03:27:12;14.60;99.30
57058;DHT22;55017;52.848;6.748;2023-06-10T03:29:39;14.60;99.90
57058;DHT22;55017;52.848;6.748;2023-06-10T03:32:05;14.70;99.90
57058;DHT22;55017;52.848;6.748;2023-06-10T03:34:31;14.70;99.90
57058;DHT22;55017;52.848;6.748;2023-06-10T03:36:57;14.60;99.90
57058;DHT22;55017;52.848;6.748;2023-06-10T03:39:22;14.60;99.90
57058;DHT22;55017;52.848;6.748;2023-06-10T03:41:49;14.60;99.90
57058;DHT22;55017;52.848;6.748;2023-06-10T03:44:15;14.70;99.90
57058;DHT22;55017;52.848;6.748;2023-06-10T03:46:41;14.60;99.90
57058;DHT22;55017;52.848;6.748;2023-06-10T03:49:06;14.60;99.90
57058;DHT22;55017;52.848;6.748;2023-06-10T03:51:32;14.50;99.90
57058;DHT22;55017;52.848;6.748;2023-06-10T03:53:58;14.60;99.90
57058;DHT22;55017;52.848;6.748;2023-06-10T03:56:23;14.60;99.90
57058;DHT22;55017;52.848;6.748;2023-06-10T03:58:49;14.70;99.90
57058;DHT22;55017;52.848;6.748;2023-06-10T04:01:15;14.70;99.90
57058;DHT22;55017;52.848;6.748;2023-06-10T04:03:40;14.70;99.90
57058;DHT22;55017;52.848;6.748;2023-06-10T04:06:09;14.80;99.90
57058;DHT22;55017;52.848;6.748;2023-06-10T04:08:34;14.80;99.90
57058;DHT22;55017;52.848;6.748;2023-06-10T04:11:01;14.80;99.90
57058;DHT22;55017;52.848;6.748;2023-06-10T04:13:27;14.90;99.90
57058;DHT22;55017;52.848;6.748;2023-06-10T04:15:53;15.00;99.90
57058;DHT22;55017;52.848;6.748;2023-06-10T04:18:20;15.10;99.90
57058;DHT22;55017;52.848;6.748;2023-06-10T04:20:47;15.00;99.90
57058;DHT22;55017;52.848;6.748;2023-06-10T04:23:13;15.10;99.90
57058;DHT22;55017;52.848;6.748;2023-06-10T04:25:38;15.00;99.90
57058;DHT22;55017;52.848;6.748;2023-06-10T04:28:04;15.10;99.90
57058;DHT22;55017;52.848;6.748;2023-06-10T04:30:29;15.00;99.90
57058;DHT22;55017;52.848;6.748;2023-06-10T04:32:56;15.10;99.90
57058;DHT22;55017;52.848;6.748;2023-06-10T04:35:22;15.10;99.90
57058;DHT22;55017;52.848;6.748;2023-06-10T04:37:48;15.10;99.90
57058;DHT22;55017;52.848;6.748;2023-06-10T04:40:13;15.30;99.90
57058;DHT22;55017;52.848;6.748;2023-06-10T04:42:41;15.30;99.90
57058;DHT22;55017;52.848;6.748;2023-06-10T04:45:07;15.30;99.90
57058;DHT22;55017;52.848;6.748;2023-06-10T04:47:33;15.30;99.90
57058;DHT22;55017;52.848;6.748;2023-06-10T04:50:01;15.40;99.90
57058;DHT22;55017;52.848;6.748;2023-06-10T04:52:27;15.50;99.90
57058;DHT22;55017;52.848;6.748;2023-06-10T04:54:53;15.40;99.90
57058;DHT22;55017;52.848;6.748;2023-06-10T04:57:19;15.50;99.90
57058;DHT22;55017;52.848;6.748;2023-06-10T04:59:45;15.50;99.90
57058;DHT22;55017;52.848;6.748;2023-06-10T05:02:11;15.60;99.90
57058;DHT22;55017;52.848;6.748;2023-06-10T05:04:37;15.60;99.90
57058;DHT22;55017;52.848;6.748;2023-06-10T05:07:02;15.50;99.90
57058;DHT22;55017;52.848;6.748;2023-06-10T05:09:28;15.60;99.90
57058;DHT22;55017;52.848;6.748;2023-06-10T05:11:54;15.70;99.90
57058;DHT22;55017;52.848;6.748;2023-06-10T05:14:19;15.70;99.90
57058;DHT22;55017;52.848;6.748;2023-06-10T05:16:47;15.70;99.90
57058;DHT22;55017;52.848;6.748;2023-06-10T05:19:12;15.90;99.90
57058;DHT22;55017;52.848;6.748;2023-06-10T05:21:38;15.90;99.90
57058;DHT22;55017;52.848;6.748;2023-06-10T05:24:04;15.90;99.90
57058;DHT22;55017;52.848;6.748;2023-06-10T05:26:29;16.00;99.90
57058;DHT22;55017;52.848;6.748;2023-06-10T05:28:57;16.10;99.90
57058;DHT22;55017;52.848;6.748;2023-06-10T05:31:22;16.10;99.90
57058;DHT22;55017;52.848;6.748;2023-06-10T05:33:48;16.10;99.90
57058;DHT22;55017;52.848;6.748;2023-06-10T05:36:13;16.20;99.90
57058;DHT22;55017;52.848;6.748;2023-06-10T05:38:39;16.20;99.90
57058;DHT22;55017;52.848;6.748;2023-06-10T05:41:05;16.30;99.90
57058;DHT22;55017;52.848;6.748;2023-06-10T05:43:30;16.30;99.90
57058;DHT22;55017;52.848;6.748;2023-06-10T05:45:56;16.50;99.90
57058;DHT22;55017;52.848;6.748;2023-06-10T05:48:21;16.50;99.90
57058;DHT22;55017;52.848;6.748;2023-06-10T05:50:47;16.70;99.90
57058;DHT22;55017;52.848;6.748;2023-06-10T05:53:16;16.70;99.90
57058;DHT22;55017;52.848;6.748;2023-06-10T05:55:43;16.70;99.90
57058;DHT22;55017;52.848;6.748;2023-06-10T05:58:09;16.90;99.90
57058;DHT22;55017;52.848;6.748;2023-06-10T06:00:35;16.90;99.90
57058;DHT22;55017;52.848;6.748;2023-06-10T06:03:01;17.10;99.90
57058;DHT22;55017;52.848;6.748;2023-06-10T06:05:26;17.10;99.90
57058;DHT22;55017;52.848;6.748;2023-06-10T06:07:52;17.20;99.90
57058;DHT22;55017;52.848;6.748;2023-06-10T06:10:18;17.30;99.90
57058;DHT22;55017;52.848;6.748;2023-06-10T06:12:44;17.40;99.90
57058;DHT22;55017;52.848;6.748;2023-06-10T06:15:10;17.50;99.90
57058;DHT22;55017;52.848;6.748;2023-06-10T06:17:36;17.60;99.90
57058;DHT22;55017;52.848;6.748;2023-06-10T06:20:03;17.80;99.90
57058;DHT22;55017;52.848;6.748;2023-06-10T06:22:28;17.80;99.90
57058;DHT22;55017;52.848;6.748;2023-06-10T06:24:54;18.10;99.90
57058;DHT22;55017;52.848;6.748;2023-06-10T06:27:20;18.00;99.90
57058;DHT22;55017;52.848;6.748;2023-06-10T06:29:46;18.10;99.90
57058;DHT22;55017;52.848;6.748;2023-06-10T06:32:12;18.20;99.90
57058;DHT22;55017;52.848;6.748;2023-06-10T06:34:37;18.30;99.90
57058;DHT22;55017;52.848;6.748;2023-06-10T06:37:04;18.40;99.90
57058;DHT22;55017;52.848;6.748;2023-06-10T06:39:30;18.50;99.90
57058;DHT22;55017;52.848;6.748;2023-06-10T06:41:55;18.50;99.90
57058;DHT22;55017;52.848;6.748;2023-06-10T06:44:21;18.60;99.90
57058;DHT22;55017;52.848;6.748;2023-06-10T06:46:46;18.70;99.90
57058;DHT22;55017;52.848;6.748;2023-06-10T06:49:12;18.80;99.90
57058;DHT22;55017;52.848;6.748;2023-06-10T06:51:37;18.90;99.90
57058;DHT22;55017;52.848;6.748;2023-06-10T06:54:03;19.10;99.90
57058;DHT22;55017;52.848;6.748;2023-06-10T06:56:31;19.20;99.90
57058;DHT22;55017;52.848;6.748;2023-06-10T06:58:56;19.30;99.40
57058;DHT22;55017;52.848;6.748;2023-06-10T07:01:22;19.40;98.90
57058;DHT22;55017;52.848;6.748;2023-06-10T07:03:47;19.60;99.20
57058;DHT22;55017;52.848;6.748;2023-06-10T07:06:13;19.70;99.40
57058;DHT22;55017;52.848;6.748;2023-06-10T07:08:38;20.00;99.10
57058;DHT22;55017;52.848;6.748;2023-06-10T07:11:04;20.00;98.50
57058;DHT22;55017;52.848;6.748;2023-06-10T07:13:30;20.20;98.40
57058;DHT22;55017;52.848;6.748;2023-06-10T07:15:55;20.50;98.20
57058;DHT22;55017;52.848;6.748;2023-06-10T07:18:21;20.50;97.30
57058;DHT22;55017;52.848;6.748;2023-06-10T07:20:46;20.70;96.30
57058;DHT22;55017;52.848;6.748;2023-06-10T07:23:12;20.70;95.60
57058;DHT22;55017;52.848;6.748;2023-06-10T07:25:37;20.80;94.70
57058;DHT22;55017;52.848;6.748;2023-06-10T07:28:03;20.90;94.80
57058;DHT22;55017;52.848;6.748;2023-06-10T07:30:29;21.00;94.70
57058;DHT22;55017;52.848;6.748;2023-06-10T07:32:54;21.10;94.00
57058;DHT22;55017;52.848;6.748;2023-06-10T07:35:21;21.30;93.90
57058;DHT22;55017;52.848;6.748;2023-06-10T07:37:46;21.40;93.90
57058;DHT22;55017;52.848;6.748;2023-06-10T07:40:12;21.50;93.50
57058;DHT22;55017;52.848;6.748;2023-06-10T07:42:38;21.40;93.20
57058;DHT22;55017;52.848;6.748;2023-06-10T07:45:04;21.60;93.60
57058;DHT22;55017;52.848;6.748;2023-06-10T07:47:32;21.70;93.10
57058;DHT22;55017;52.848;6.748;2023-06-10T07:49:58;21.70;92.80
57058;DHT22;55017;52.848;6.748;2023-06-10T07:52:24;21.80;92.50
57058;DHT22;55017;52.848;6.748;2023-06-10T07:54:50;22.00;92.30
57058;DHT22;55017;52.848;6.748;2023-06-10T07:57:15;22.10;91.70
57058;DHT22;55017;52.848;6.748;2023-06-10T07:59:41;22.10;91.90
57058;DHT22;55017;52.848;6.748;2023-06-10T08:02:06;22.40;91.50
57058;DHT22;55017;52.848;6.748;2023-06-10T08:04:32;22.30;91.20
57058;DHT22;55017;52.848;6.748;2023-06-10T08:07:00;22.50;90.10
57058;DHT22;55017;52.848;6.748;2023-06-10T08:09:25;22.70;88.90
57058;DHT22;55017;52.848;6.748;2023-06-10T08:11:51;22.90;88.60
57058;DHT22;55017;52.848;6.748;2023-06-10T08:14:17;23.00;84.70
57058;DHT22;55017;52.848;6.748;2023-06-10T08:16:43;23.00;83.30
57058;DHT22;55017;52.848;6.748;2023-06-10T08:19:09;23.10;83.20
57058;DHT22;55017;52.848;6.748;2023-06-10T08:21:35;23.20;81.70
57058;DHT22;55017;52.848;6.748;2023-06-10T08:24:02;23.40;81.40
57058;DHT22;55017;52.848;6.748;2023-06-10T08:26:28;23.40;80.90
57058;DHT22;55017;52.848;6.748;2023-06-10T08:28:53;23.50;79.60
57058;DHT22;55017;52.848;6.748;2023-06-10T08:31:21;23.70;77.50
57058;DHT22;55017;52.848;6.748;2023-06-10T08:33:46;23.80;78.30
57058;DHT22;55017;52.848;6.748;2023-06-10T08:36:12;23.90;76.60
57058;DHT22;55017;52.848;6.748;2023-06-10T08:38:38;24.00;73.60
57058;DHT22;55017;52.848;6.748;2023-06-10T08:41:05;24.20;75.80
57058;DHT22;55017;52.848;6.748;2023-06-10T08:43:54;24.40;73.50
57058;DHT22;55017;52.848;6.748;2023-06-10T08:46:20;24.50;73.60
57058;DHT22;55017;52.848;6.748;2023-06-10T08:48:48;24.60;72.10
57058;DHT22;55017;52.848;6.748;2023-06-10T08:51:19;24.80;70.20
57058;DHT22;55017;52.848;6.748;2023-06-10T08:54:02;24.80;71.10
57058;DHT22;55017;52.848;6.748;2023-06-10T08:56:28;25.00;70.70
57058;DHT22;55017;52.848;6.748;2023-06-10T08:58:56;25.10;70.70
57058;DHT22;55017;52.848;6.748;2023-06-10T09:01:23;25.20;67.00
57058;DHT22;55017;52.848;6.748;2023-06-10T09:03:49;25.30;68.60
57058;DHT22;55017;52.848;6.748;2023-06-10T09:06:15;25.30;67.70
57058;DHT22;55017;52.848;6.748;2023-06-10T09:08:41;25.50;66.90
57058;DHT22;55017;52.848;6.748;2023-06-10T09:11:07;25.50;65.60
57058;DHT22;55017;52.848;6.748;2023-06-10T09:13:33;25.70;66.90
57058;DHT22;55017;52.848;6.748;2023-06-10T09:15:58;25.90;63.80
57058;DHT22;55017;52.848;6.748;2023-06-10T09:18:27;26.00;64.20
57058;DHT22;55017;52.848;6.748;2023-06-10T09:20:53;26.00;60.50
57058;DHT22;55017;52.848;6.748;2023-06-10T09:23:18;26.00;59.30
57058;DHT22;55017;52.848;6.748;2023-06-10T09:25:44;26.10;61.50
57058;DHT22;55017;52.848;6.748;2023-06-10T09:28:14;26.10;60.80
57058;DHT22;55017;52.848;6.748;2023-06-10T09:30:40;26.20;57.80
57058;DHT22;55017;52.848;6.748;2023-06-10T09:33:13;26.20;60.40
57058;DHT22;55017;52.848;6.748;2023-06-10T09:35:48;26.30;60.20
57058;DHT22;55017;52.848;6.748;2023-06-10T09:38:22;26.50;60.70
57058;DHT22;55017;52.848;6.748;2023-06-10T09:40:48;26.70;61.90
57058;DHT22;55017;52.848;6.748;2023-06-10T09:43:13;26.90;59.10
57058;DHT22;55017;52.848;6.748;2023-06-10T09:45:40;27.10;60.60
57058;DHT22;55017;52.848;6.748;2023-06-10T09:48:05;27.30;58.20
57058;DHT22;55017;52.848;6.748;2023-06-10T09:50:34;27.30;55.10
57058;DHT22;55017;52.848;6.748;2023-06-10T09:53:00;27.40;55.40
57058;DHT22;55017;52.848;6.748;2023-06-10T09:55:28;27.40;57.80
57058;DHT22;55017;52.848;6.748;2023-06-10T09:57:54;27.50;56.50
57058;DHT22;55017;52.848;6.748;2023-06-10T10:00:21;27.70;57.20
57058;DHT22;55017;52.848;6.748;2023-06-10T10:02:48;27.70;55.20
57058;DHT22;55017;52.848;6.748;2023-06-10T10:05:18;27.80;57.80
57058;DHT22;55017;52.848;6.748;2023-06-10T10:07:45;27.90;55.90
57058;DHT22;55017;52.848;6.748;2023-06-10T10:10:12;27.90;53.00
57058;DHT22;55017;52.848;6.748;2023-06-10T10:12:39;28.20;54.70
57058;DHT22;55017;52.848;6.748;2023-06-10T10:15:09;28.20;55.40
57058;DHT22;55017;52.848;6.748;2023-06-10T10:18:06;28.30;52.20
57058;DHT22;55017;52.848;6.748;2023-06-10T10:20:33;28.40;49.60
57058;DHT22;55017;52.848;6.748;2023-06-10T10:22:59;28.40;53.20
57058;DHT22;55017;52.848;6.748;2023-06-10T10:25:29;28.60;54.50
57058;DHT22;55017;52.848;6.748;2023-06-10T10:28:10;28.70;52.60
57058;DHT22;55017;52.848;6.748;2023-06-10T10:30:46;28.80;52.80
57058;DHT22;55017;52.848;6.748;2023-06-10T10:33:16;28.80;49.00
57058;DHT22;55017;52.848;6.748;2023-06-10T10:35:43;28.70;48.40
57058;DHT22;55017;52.848;6.748;2023-06-10T10:38:08;28.80;50.80
57058;DHT22;55017;52.848;6.748;2023-06-10T10:40:34;28.80;49.40
57058;DHT22;55017;52.848;6.748;2023-06-10T10:43:01;28.90;49.20
57058;DHT22;55017;52.848;6.748;2023-06-10T10:45:30;29.00;50.40
57058;DHT22;55017;52.848;6.748;2023-06-10T10:47:56;29.00;50.50
57058;DHT22;55017;52.848;6.748;2023-06-10T10:50:23;29.20;51.60
57058;DHT22;55017;52.848;6.748;2023-06-10T10:53:04;29.40;50.90
57058;DHT22;55017;52.848;6.748;2023-06-10T10:55:31;29.50;50.20
57058;DHT22;55017;52.848;6.748;2023-06-10T11:00:37;29.60;50.70
57058;DHT22;55017;52.848;6.748;2023-06-10T11:05:36;29.70;50.80
57058;DHT22;55017;52.848;6.748;2023-06-10T11:08:03;29.80;49.00
57058;DHT22;55017;52.848;6.748;2023-06-10T11:10:29;29.80;48.10
57058;DHT22;55017;52.848;6.748;2023-06-10T11:12:55;29.70;47.40
57058;DHT22;55017;52.848;6.748;2023-06-10T11:15:27;29.70;44.70
57058;DHT22;55017;52.848;6.748;2023-06-10T11:18:12;29.80;46.90
57058;DHT22;55017;52.848;6.748;2023-06-10T11:28:41;30.20;47.70
57058;DHT22;55017;52.848;6.748;2023-06-10T11:31:07;30.20;47.70
57058;DHT22;55017;52.848;6.748;2023-06-10T11:33:32;30.30;43.50
57058;DHT22;55017;52.848;6.748;2023-06-10T11:35:58;30.30;45.90
57058;DHT22;55017;52.848;6.748;2023-06-10T11:38:24;30.40;44.80
57058;DHT22;55017;52.848;6.748;2023-06-10T11:40:51;30.40;45.00
57058;DHT22;55017;52.848;6.748;2023-06-10T11:43:20;30.40;45.70
57058;DHT22;55017;52.848;6.748;2023-06-10T11:45:46;30.60;46.60
57058;DHT22;55017;52.848;6.748;2023-06-10T11:48:12;30.60;44.90
57058;DHT22;55017;52.848;6.748;2023-06-10T11:50:38;30.70;45.30
57058;DHT22;55017;52.848;6.748;2023-06-10T11:53:04;30.80;42.10
57058;DHT22;55017;52.848;6.748;2023-06-10T11:55:43;30.90;44.10
57058;DHT22;55017;52.848;6.748;2023-06-10T11:58:27;31.00;43.00
57058;DHT22;55017;52.848;6.748;2023-06-10T12:00:54;31.10;46.50
57058;DHT22;55017;52.848;6.748;2023-06-10T12:03:22;31.10;43.30
57058;DHT22;55017;52.848;6.748;2023-06-10T12:08:23;31.10;43.20
57058;DHT22;55017;52.848;6.748;2023-06-10T12:10:48;31.10;41.90
57058;DHT22;55017;52.848;6.748;2023-06-10T12:13:14;31.00;41.80
57058;DHT22;55017;52.848;6.748;2023-06-10T12:15:40;31.20;44.10
57058;DHT22;55017;52.848;6.748;2023-06-10T12:18:05;31.20;43.10
57058;DHT22;55017;52.848;6.748;2023-06-10T12:20:32;31.20;41.80
57058;DHT22;55017;52.848;6.748;2023-06-10T12:23:09;31.30;41.30
57058;DHT22;55017;52.848;6.748;2023-06-10T12:25:34;31.30;39.70
57058;DHT22;55017;52.848;6.748;2023-06-10T12:28:02;31.40;40.00
57058;DHT22;55017;52.848;6.748;2023-06-10T12:30:28;31.50;41.50
57058;DHT22;55017;52.848;6.748;2023-06-10T12:32:54;31.70;42.90
57058;DHT22;55017;52.848;6.748;2023-06-10T12:35:21;31.70;42.10
57058;DHT22;55017;52.848;6.748;2023-06-10T12:40:32;31.80;41.10
57058;DHT22;55017;52.848;6.748;2023-06-10T12:42:58;31.70;37.90
57058;DHT22;55017;52.848;6.748;2023-06-10T12:45:42;31.70;39.10
57058;DHT22;55017;52.848;6.748;2023-06-10T12:48:31;31.90;39.70
57058;DHT22;55017;52.848;6.748;2023-06-10T12:50:56;31.80;34.20
57058;DHT22;55017;52.848;6.748;2023-06-10T12:53:23;31.60;38.20
57058;DHT22;55017;52.848;6.748;2023-06-10T12:55:49;31.70;37.20
57058;DHT22;55017;52.848;6.748;2023-06-10T12:58:15;31.90;40.10
57058;DHT22;55017;52.848;6.748;2023-06-10T13:00:41;31.90;38.90
57058;DHT22;55017;52.848;6.748;2023-06-10T13:03:08;32.00;38.00
57058;DHT22;55017;52.848;6.748;2023-06-10T13:05:35;31.60;34.20
57058;DHT22;55017;52.848;6.748;2023-06-10T13:08:02;31.70;34.10
57058;DHT22;55017;52.848;6.748;2023-06-10T13:10:28;31.80;38.20
57058;DHT22;55017;52.848;6.748;2023-06-10T13:12:54;31.90;38.90
57058;DHT22;55017;52.848;6.748;2023-06-10T13:15:22;31.90;34.40
57058;DHT22;55017;52.848;6.748;2023-06-10T13:17:48;31.90;37.70
57058;DHT22;55017;52.848;6.748;2023-06-10T13:20:15;32.00;38.00
57058;DHT22;55017;52.848;6.748;2023-06-10T13:22:42;32.20;38.00
57058;DHT22;55017;52.848;6.748;2023-06-10T13:25:08;32.30;34.00
57058;DHT22;55017;52.848;6.748;2023-06-10T13:27:34;32.20;38.40
57058;DHT22;55017;52.848;6.748;2023-06-10T13:30:00;32.30;37.80
57058;DHT22;55017;52.848;6.748;2023-06-10T13:32:26;32.20;36.70
57058;DHT22;55017;52.848;6.748;2023-06-10T13:34:51;32.30;33.70
57058;DHT22;55017;52.848;6.748;2023-06-10T13:37:19;32.20;36.30
57058;DHT22;55017;52.848;6.748;2023-06-10T13:39:45;32.30;35.30
57058;DHT22;55017;52.848;6.748;2023-06-10T13:42:16;32.50;37.80
57058;DHT22;55017;52.848;6.748;2023-06-10T13:44:41;32.80;36.60
57058;DHT22;55017;52.848;6.748;2023-06-10T13:47:07;32.70;36.30
57058;DHT22;55017;52.848;6.748;2023-06-10T13:49:33;32.70;36.90
57058;DHT22;55017;52.848;6.748;2023-06-10T13:51:58;32.80;37.40
57058;DHT22;55017;52.848;6.748;2023-06-10T13:54:24;32.90;35.00
57058;DHT22;55017;52.848;6.748;2023-06-10T13:56:50;32.90;34.30
57058;DHT22;55017;52.848;6.748;2023-06-10T13:59:15;33.00;34.10
57058;DHT22;55017;52.848;6.748;2023-06-10T14:01:41;33.30;32.70
57058;DHT22;55017;52.848;6.748;2023-06-10T14:04:07;34.00;34.20
57058;DHT22;55017;52.848;6.748;2023-06-10T14:06:33;35.20;33.00
57058;DHT22;55017;52.848;6.748;2023-06-10T14:08:59;36.80;35.30
57058;DHT22;55017;52.848;6.748;2023-06-10T14:11:25;38.10;30.80
57058;DHT22;55017;52.848;6.748;2023-06-10T14:13:51;38.80;29.90
57058;DHT22;55017;52.848;6.748;2023-06-10T14:16:16;39.40;29.60
57058;DHT22;55017;52.848;6.748;2023-06-10T14:18:42;39.50;26.30
57058;DHT22;55017;52.848;6.748;2023-06-10T14:21:08;39.70;29.50
57058;DHT22;55017;52.848;6.748;2023-06-10T14:23:33;40.00;29.60
57058;DHT22;55017;52.848;6.748;2023-06-10T14:25:59;40.30;29.90
57058;DHT22;55017;52.848;6.748;2023-06-10T14:28:25;39.80;25.90
57058;DHT22;55017;52.848;6.748;2023-06-10T14:30:52;38.50;28.50
57058;DHT22;55017;52.848;6.748;2023-06-10T14:33:18;37.30;28.90
57058;DHT22;55017;52.848;6.748;2023-06-10T14:35:44;36.60;29.30
57058;DHT22;55017;52.848;6.748;2023-06-10T14:38:09;36.30;32.10
57058;DHT22;55017;52.848;6.748;2023-06-10T14:40:35;35.90;30.30
57058;DHT22;55017;52.848;6.748;2023-06-10T14:43:01;35.50;31.00
57058;DHT22;55017;52.848;6.748;2023-06-10T14:45:29;35.20;30.30
57058;DHT22;55017;52.848;6.748;2023-06-10T14:47:55;34.90;30.90
57058;DHT22;55017;52.848;6.748;2023-06-10T14:50:20;34.80;32.80
57058;DHT22;55017;52.848;6.748;2023-06-10T14:52:46;34.50;31.30
57058;DHT22;55017;52.848;6.748;2023-06-10T14:55:12;34.30;32.80
57058;DHT22;55017;52.848;6.748;2023-06-10T14:57:37;34.10;29.60
57058;DHT22;55017;52.848;6.748;2023-06-10T15:00:03;33.80;33.10
57058;DHT22;55017;52.848;6.748;2023-06-10T15:02:29;33.60;33.50
57058;DHT22;55017;52.848;6.748;2023-06-10T15:04:54;33.40;34.30
57058;DHT22;55017;52.848;6.748;2023-06-10T15:07:20;33.20;32.90
57058;DHT22;55017;52.848;6.748;2023-06-10T15:09:45;32.80;34.10
57058;DHT22;55017;52.848;6.748;2023-06-10T15:12:11;32.80;34.50
57058;DHT22;55017;52.848;6.748;2023-06-10T15:14:36;32.50;32.70
57058;DHT22;55017;52.848;6.748;2023-06-10T15:17:02;32.20;33.60
57058;DHT22;55017;52.848;6.748;2023-06-10T15:19:28;32.10;32.60
57058;DHT22;55017;52.848;6.748;2023-06-10T15:21:54;31.80;33.70
57058;DHT22;55017;52.848;6.748;2023-06-10T15:24:19;31.90;35.60
57058;DHT22;55017;52.848;6.748;2023-06-10T15:26:45;31.80;36.20
57058;DHT22;55017;52.848;6.748;2023-06-10T15:29:10;31.80;34.60
57058;DHT22;55017;52.848;6.748;2023-06-10T15:31:36;31.70;34.50
57058;DHT22;55017;52.848;6.748;2023-06-10T15:34:02;31.50;33.90
57058;DHT22;55017;52.848;6.748;2023-06-10T15:36:29;31.20;34.10
57058;DHT22;55017;52.848;6.748;2023-06-10T15:39:00;31.20;34.40
57058;DHT22;55017;52.848;6.748;2023-06-10T15:41:26;31.10;36.00
57058;DHT22;55017;52.848;6.748;2023-06-10T15:43:52;31.00;36.10
57058;DHT22;55017;52.848;6.748;2023-06-10T15:46:17;30.90;34.60
57058;DHT22;55017;52.848;6.748;2023-06-10T15:48:43;31.00;36.00
57058;DHT22;55017;52.848;6.748;2023-06-10T15:51:08;31.10;37.80
57058;DHT22;55017;52.848;6.748;2023-06-10T15:53:34;31.00;36.90